createdAt,value
2023-02-20T00:00:58.709Z,22.99
2023-02-20T00:01:58.682Z,23.02
2023-02-20T00:02:58.646Z,23.02
2023-02-20T00:03:58.622Z,23.02
2023-02-20T00:04:58.600Z,22.98
2023-02-20T00:05:58.574Z,23.02
2023-02-20T00:06:58.548Z,23.05
2023-02-20T00:07:58.522Z,23.05
2023-02-20T00:08:58.482Z,23.03
2023-02-20T00:09:58.458Z,23.01
2023-02-20T00:10:58.433Z,23.02
2023-02-20T00:11:58.410Z,23.01
2023-02-20T00:12:58.381Z,23.05
2023-02-20T00:13:58.348Z,23.00
2023-02-20T00:14:58.320Z,23.02
2023-02-20T00:15:58.315Z,23.02
2023-02-20T00:16:58.262Z,22.97
2023-02-20T00:17:58.238Z,23.01
2023-02-20T00:18:58.200Z,23.03
2023-02-20T00:19:58.162Z,23.02
2023-02-20T00:20:58.127Z,23.05
2023-02-20T00:21:58.100Z,23.03
2023-02-20T00:22:58.091Z,22.97
2023-02-20T00:23:58.040Z,23.03
2023-02-20T00:24:58.013Z,23.03
2023-02-20T00:25:57.981Z,22.99
2023-02-20T00:26:57.948Z,23.03
2023-02-20T00:27:57.912Z,23.02
2023-02-20T00:28:57.891Z,22.99
2023-02-20T00:29:57.922Z,23.04
2023-02-20T00:30:57.870Z,22.99
2023-02-20T00:31:57.800Z,23.01
2023-02-20T00:32:57.769Z,23.07
2023-02-20T00:33:57.750Z,23.03
2023-02-20T00:34:57.708Z,23.00
2023-02-20T00:35:57.684Z,23.03
2023-02-20T00:36:57.646Z,23.06
2023-02-20T00:37:57.616Z,23.05
2023-02-20T00:38:57.590Z,23.16
2023-02-20T00:39:57.588Z,23.06
2023-02-20T00:40:57.533Z,23.06
2023-02-20T00:41:57.502Z,23.08
2023-02-20T00:42:57.468Z,23.10
2023-02-20T00:43:57.452Z,23.08
2023-02-20T00:44:57.414Z,23.10
2023-02-20T00:45:57.421Z,23.11
2023-02-20T00:46:57.348Z,23.08
2023-02-20T00:47:57.323Z,23.08
2023-02-20T00:48:57.289Z,23.08
2023-02-20T00:49:57.261Z,23.05
2023-02-20T00:50:57.236Z,23.06
2023-02-20T00:51:57.202Z,23.10
2023-02-20T00:52:57.170Z,23.01
2023-02-20T00:53:57.139Z,23.08
2023-02-20T00:54:57.112Z,23.11
2023-02-20T00:55:57.077Z,23.07
2023-02-20T00:56:57.080Z,23.13
2023-02-20T00:57:57.031Z,23.11
2023-02-20T00:58:57.000Z,23.13
2023-02-20T00:59:56.982Z,23.14
2023-02-20T01:00:56.948Z,23.13
2023-02-20T01:01:56.952Z,23.08
2023-02-20T01:02:56.953Z,23.13
2023-02-20T01:03:56.857Z,23.10
2023-02-20T01:04:56.846Z,23.07
2023-02-20T01:05:56.787Z,23.07
2023-02-20T01:06:56.745Z,23.03
2023-02-20T01:07:56.718Z,23.13
2023-02-20T01:08:56.686Z,23.10
2023-02-20T01:09:56.659Z,23.13
2023-02-20T01:10:56.641Z,23.06
2023-02-20T01:11:56.608Z,23.13
2023-02-20T01:12:56.572Z,23.13
2023-02-20T01:13:56.544Z,23.10
2023-02-20T01:14:56.505Z,23.13
2023-02-20T01:15:56.498Z,23.11
2023-02-20T01:16:56.441Z,23.08
2023-02-20T01:17:56.414Z,23.10
2023-02-20T01:18:56.388Z,23.09
2023-02-20T01:19:56.357Z,23.07
2023-02-20T01:20:56.311Z,23.13
2023-02-20T01:21:56.282Z,23.03
2023-02-20T01:22:56.244Z,23.08
2023-02-20T01:23:56.217Z,23.11
2023-02-20T01:24:56.192Z,23.13
2023-02-20T01:25:56.160Z,23.11
2023-02-20T01:26:56.130Z,23.16
2023-02-20T01:27:56.105Z,23.14
2023-02-20T01:28:56.072Z,23.08
2023-02-20T01:29:56.045Z,23.14
2023-02-20T01:30:56.050Z,23.09
2023-02-20T01:31:56.080Z,23.11
2023-02-20T01:32:55.932Z,23.09
2023-02-20T01:33:55.901Z,23.11
2023-02-20T01:34:55.887Z,23.04
2023-02-20T01:35:55.851Z,23.08
2023-02-20T01:36:55.817Z,22.98
2023-02-20T01:37:55.793Z,23.01
2023-02-20T01:38:55.767Z,23.03
2023-02-20T01:39:55.731Z,22.96
2023-02-20T01:40:55.702Z,23.06
2023-02-20T01:41:55.670Z,23.03
2023-02-20T01:42:55.634Z,22.98
2023-02-20T01:43:55.607Z,23.01
2023-02-20T01:44:55.580Z,22.99
2023-02-20T01:45:55.552Z,22.98
2023-02-20T01:46:55.563Z,22.93
2023-02-20T01:47:55.506Z,22.96
2023-02-20T01:48:55.474Z,22.96
2023-02-20T01:49:55.445Z,22.96
2023-02-20T01:50:55.417Z,22.96
2023-02-20T01:51:55.380Z,22.98
2023-02-20T01:52:55.343Z,22.98
2023-02-20T01:53:55.323Z,22.87
2023-02-20T01:54:55.286Z,22.91
2023-02-20T01:55:55.247Z,22.98
2023-02-20T01:56:55.217Z,22.96
2023-02-20T01:57:55.202Z,22.94
2023-02-20T01:58:55.185Z,22.90
2023-02-20T01:59:55.108Z,22.98
2023-02-20T02:00:55.097Z,22.93
2023-02-20T02:01:55.060Z,22.91
2023-02-20T02:02:55.020Z,22.88
2023-02-20T02:03:54.975Z,22.86
2023-02-20T02:04:54.954Z,22.90
2023-02-20T02:05:54.934Z,22.83
2023-02-20T02:06:54.894Z,22.83
2023-02-20T02:07:54.875Z,22.88
2023-02-20T02:08:54.841Z,22.88
2023-02-20T02:09:54.822Z,22.86
2023-02-20T02:10:54.777Z,22.88
2023-02-20T02:11:54.755Z,22.86
2023-02-20T02:12:54.722Z,22.81
2023-02-20T02:13:54.695Z,22.83
2023-02-20T02:14:54.671Z,22.75
2023-02-20T02:15:54.660Z,22.83
2023-02-20T02:16:54.603Z,22.81
2023-02-20T02:17:54.578Z,22.83
2023-02-20T02:18:54.553Z,22.83
2023-02-20T02:19:54.527Z,22.78
2023-02-20T02:20:54.472Z,22.86
2023-02-20T02:21:54.435Z,22.81
2023-02-20T02:22:54.401Z,22.80
2023-02-20T02:23:54.367Z,22.81
2023-02-20T02:24:54.336Z,22.86
2023-02-20T02:25:54.304Z,22.67
2023-02-20T02:26:54.266Z,22.70
2023-02-20T02:27:54.242Z,22.72
2023-02-20T02:28:54.203Z,22.76
2023-02-20T02:29:54.176Z,22.75
2023-02-20T02:30:54.138Z,22.76
2023-02-20T02:31:54.126Z,22.67
2023-02-20T02:32:54.064Z,22.73
2023-02-20T02:33:54.035Z,22.77
2023-02-20T02:34:53.998Z,22.73
2023-02-20T02:35:53.973Z,22.73
2023-02-20T02:36:53.919Z,22.67
2023-02-20T02:37:53.883Z,22.72
2023-02-20T02:38:53.841Z,22.75
2023-02-20T02:39:53.815Z,22.71
2023-02-20T02:40:53.788Z,22.67
2023-02-20T02:41:53.778Z,22.72
2023-02-20T02:42:53.745Z,22.69
2023-02-20T02:43:53.712Z,22.64
2023-02-20T02:44:53.686Z,22.67
2023-02-20T02:45:53.723Z,22.69
2023-02-20T02:46:53.649Z,22.71
2023-02-20T02:47:53.613Z,22.69
2023-02-20T02:48:53.590Z,22.67
2023-02-20T02:49:53.580Z,22.65
2023-02-20T02:50:53.553Z,22.64
2023-02-20T02:51:53.530Z,22.61
2023-02-20T02:52:53.499Z,22.62
2023-02-20T02:53:53.469Z,22.71
2023-02-20T02:54:53.437Z,22.57
2023-02-20T02:55:53.428Z,22.65
2023-02-20T02:56:53.398Z,22.69
2023-02-20T02:57:53.362Z,22.64
2023-02-20T02:58:53.332Z,22.64
2023-02-20T02:59:53.308Z,22.57
2023-02-20T03:00:53.332Z,22.65
2023-02-20T03:01:53.267Z,22.59
2023-02-20T03:02:53.427Z,22.64
2023-02-20T03:03:53.229Z,22.65
2023-02-20T03:04:53.199Z,22.67
2023-02-20T03:05:53.175Z,22.65
2023-02-20T03:06:53.167Z,22.61
2023-02-20T03:07:53.130Z,22.57
2023-02-20T03:08:53.114Z,22.59
2023-02-20T03:09:53.086Z,22.61
2023-02-20T03:10:53.077Z,22.59
2023-02-20T03:11:53.031Z,22.62
2023-02-20T03:12:52.996Z,22.61
2023-02-20T03:13:52.976Z,22.59
2023-02-20T03:14:52.941Z,22.62
2023-02-20T03:15:52.908Z,22.61
2023-02-20T03:16:52.880Z,22.59
2023-02-20T03:17:52.850Z,22.57
2023-02-20T03:18:52.816Z,22.57
2023-02-20T03:19:52.787Z,22.53
2023-02-20T03:20:52.772Z,22.59
2023-02-20T03:21:52.728Z,22.61
2023-02-20T03:22:52.702Z,22.51
2023-02-20T03:23:52.663Z,22.54
2023-02-20T03:24:52.648Z,22.57
2023-02-20T03:25:52.631Z,22.61
2023-02-20T03:26:52.582Z,22.59
2023-02-20T03:27:52.550Z,22.57
2023-02-20T03:28:52.527Z,22.61
2023-02-20T03:29:52.497Z,22.53
2023-02-20T03:30:52.488Z,22.52
2023-02-20T03:31:52.556Z,22.54
2023-02-20T03:32:52.422Z,22.51
2023-02-20T03:33:52.385Z,22.57
2023-02-20T03:34:52.365Z,22.54
2023-02-20T03:35:52.342Z,22.57
2023-02-20T03:36:52.314Z,22.53
2023-02-20T03:37:52.309Z,22.51
2023-02-20T03:38:52.272Z,22.52
2023-02-20T03:39:52.249Z,22.46
2023-02-20T03:40:52.247Z,22.49
2023-02-20T03:41:52.213Z,22.55
2023-02-20T03:42:52.184Z,22.51
2023-02-20T03:43:52.154Z,22.52
2023-02-20T03:44:52.144Z,22.52
2023-02-20T03:45:52.153Z,22.54
2023-02-20T03:46:52.115Z,22.52
2023-02-20T03:47:52.083Z,22.56
2023-02-20T03:48:52.061Z,22.52
2023-02-20T03:49:52.039Z,22.52
2023-02-20T03:50:52.014Z,22.52
2023-02-20T03:51:51.984Z,22.56
2023-02-20T03:52:51.961Z,22.51
2023-02-20T03:53:51.927Z,22.48
2023-02-20T03:54:51.910Z,22.54
2023-02-20T03:55:51.887Z,22.54
2023-02-20T03:56:51.868Z,22.49
2023-02-20T03:57:51.847Z,22.48
2023-02-20T03:58:51.834Z,22.49
2023-02-20T03:59:51.818Z,22.46
2023-02-20T04:00:51.803Z,22.52
2023-02-20T04:01:51.769Z,22.50
2023-02-20T04:02:51.746Z,22.52
2023-02-20T04:03:51.718Z,22.44
2023-02-20T04:04:51.689Z,22.51
2023-02-20T04:05:51.653Z,22.48
2023-02-20T04:06:51.625Z,22.59
2023-02-20T04:07:51.596Z,22.56
2023-02-20T04:08:51.577Z,22.51
2023-02-20T04:09:51.542Z,22.48
2023-02-20T04:10:51.523Z,22.48
2023-02-20T04:11:51.528Z,22.41
2023-02-20T04:12:51.484Z,22.46
2023-02-20T04:13:51.462Z,22.43
2023-02-20T04:14:51.444Z,22.43
2023-02-20T04:15:51.420Z,22.46
2023-02-20T04:16:51.398Z,22.44
2023-02-20T04:17:51.376Z,22.51
2023-02-20T04:18:51.353Z,22.49
2023-02-20T04:19:51.340Z,22.46
2023-02-20T04:20:51.298Z,22.44
2023-02-20T04:21:51.275Z,22.44
2023-02-20T04:22:51.253Z,22.41
2023-02-20T04:23:51.216Z,22.44
2023-02-20T04:24:51.192Z,22.45
2023-02-20T04:25:51.162Z,22.49
2023-02-20T04:26:51.131Z,22.46
2023-02-20T04:27:51.102Z,22.43
2023-02-20T04:28:51.082Z,22.40
2023-02-20T04:29:51.056Z,22.43
2023-02-20T04:30:51.147Z,22.44
2023-02-20T04:31:51.029Z,22.41
2023-02-20T04:32:50.976Z,22.41
2023-02-20T04:33:50.943Z,22.38
2023-02-20T04:34:50.911Z,22.40
2023-02-20T04:35:50.889Z,22.41
2023-02-20T04:36:50.879Z,22.41
2023-02-20T04:37:50.849Z,22.44
2023-02-20T04:38:50.835Z,22.40
2023-02-20T04:39:50.811Z,22.39
2023-02-20T04:40:50.792Z,22.38
2023-02-20T04:41:50.761Z,22.37
2023-02-20T04:42:50.746Z,22.44
2023-02-20T04:43:50.711Z,22.48
2023-02-20T04:44:50.681Z,22.35
2023-02-20T04:45:50.771Z,22.40
2023-02-20T04:46:50.634Z,22.37
2023-02-20T04:47:50.610Z,22.40
2023-02-20T04:48:50.577Z,22.44
2023-02-20T04:49:50.548Z,22.47
2023-02-20T04:50:50.519Z,22.43
2023-02-20T04:51:50.489Z,22.46
2023-02-20T04:52:50.492Z,22.46
2023-02-20T04:53:50.439Z,22.40
2023-02-20T04:54:50.434Z,22.44
2023-02-20T04:55:50.376Z,22.45
2023-02-20T04:56:50.350Z,22.35
2023-02-20T04:57:50.327Z,22.42
2023-02-20T04:58:50.293Z,22.31
2023-02-20T04:59:50.262Z,22.34
2023-02-20T05:00:50.231Z,22.38
2023-02-20T05:01:50.202Z,22.42
2023-02-20T05:02:50.190Z,22.38
2023-02-20T05:03:50.152Z,22.40
2023-02-20T05:04:50.185Z,22.47
2023-02-20T05:05:50.083Z,22.43
2023-02-20T05:06:50.050Z,22.40
2023-02-20T05:07:50.037Z,22.43
2023-02-20T05:08:50.353Z,22.38
2023-02-20T05:09:49.972Z,22.43
2023-02-20T05:10:49.947Z,22.36
2023-02-20T05:11:49.914Z,22.41
2023-02-20T05:12:49.899Z,22.42
2023-02-20T05:13:49.847Z,22.34
2023-02-20T05:14:49.829Z,22.41
2023-02-20T05:15:49.818Z,22.39
2023-02-20T05:16:49.763Z,22.36
2023-02-20T05:17:49.738Z,22.41
2023-02-20T05:18:49.937Z,22.41
2023-02-20T05:19:49.680Z,22.31
2023-02-20T05:20:49.675Z,22.33
2023-02-20T05:21:49.622Z,22.34
2023-02-20T05:22:49.605Z,22.34
2023-02-20T05:23:49.583Z,22.35
2023-02-20T05:24:49.562Z,22.36
2023-02-20T05:25:49.538Z,22.34
2023-02-20T05:26:49.511Z,22.36
2023-02-20T05:27:49.470Z,22.31
2023-02-20T05:28:49.445Z,22.28
2023-02-20T05:29:49.416Z,22.34
2023-02-20T05:30:49.432Z,22.31
2023-02-20T05:31:49.486Z,22.36
2023-02-20T05:32:49.328Z,22.31
2023-02-20T05:33:49.311Z,22.34
2023-02-20T05:34:49.284Z,22.30
2023-02-20T05:35:49.256Z,22.34
2023-02-20T05:36:49.245Z,22.34
2023-02-20T05:37:49.215Z,22.25
2023-02-20T05:38:49.226Z,22.27
2023-02-20T05:39:49.175Z,22.34
2023-02-20T05:40:49.152Z,22.32
2023-02-20T05:41:49.123Z,22.38
2023-02-20T05:42:49.100Z,22.33
2023-02-20T05:43:49.074Z,22.31
2023-02-20T05:44:49.056Z,22.35
2023-02-20T05:45:49.028Z,22.29
2023-02-20T05:46:49.007Z,22.31
2023-02-20T05:47:48.998Z,22.36
2023-02-20T05:48:48.971Z,22.27
2023-02-20T05:49:48.968Z,22.30
2023-02-20T05:50:48.928Z,22.25
2023-02-20T05:51:48.908Z,22.29
2023-02-20T05:52:48.885Z,22.28
2023-02-20T05:53:48.886Z,22.28
2023-02-20T05:54:48.850Z,22.25
2023-02-20T05:55:48.832Z,22.22
2023-02-20T05:56:48.811Z,22.30
2023-02-20T05:57:48.781Z,22.33
2023-02-20T05:58:48.781Z,22.31
2023-02-20T05:59:48.748Z,22.24
2023-02-20T06:00:48.720Z,22.25
2023-02-20T06:01:48.702Z,22.31
2023-02-20T06:02:48.679Z,22.30
2023-02-20T06:03:48.677Z,22.24
2023-02-20T06:04:48.664Z,22.25
2023-02-20T06:05:48.602Z,22.22
2023-02-20T06:06:48.576Z,22.17
2023-02-20T06:07:48.557Z,22.21
2023-02-20T06:08:48.526Z,22.25
2023-02-20T06:09:48.501Z,22.24
2023-02-20T06:10:48.493Z,22.27
2023-02-20T06:11:48.462Z,22.20
2023-02-20T06:12:48.449Z,22.17
2023-02-20T06:13:48.424Z,22.22
2023-02-20T06:14:48.393Z,22.24
2023-02-20T06:15:48.404Z,22.25
2023-02-20T06:16:48.330Z,22.22
2023-02-20T06:17:48.317Z,22.11
2023-02-20T06:18:48.306Z,22.16
2023-02-20T06:19:48.265Z,22.17
2023-02-20T06:20:48.250Z,22.17
2023-02-20T06:21:48.230Z,22.19
2023-02-20T06:22:48.201Z,22.19
2023-02-20T06:23:48.182Z,22.14
2023-02-20T06:24:48.159Z,22.22
2023-02-20T06:25:48.139Z,22.14
2023-02-20T06:32:48.014Z,22.16
2023-02-20T06:35:47.961Z,22.17
2023-02-20T06:38:47.839Z,22.22
2023-02-20T06:52:47.512Z,25.60
2023-02-20T06:53:47.494Z,25.53
2023-02-20T06:54:47.459Z,26.04
2023-02-20T06:57:47.362Z,26.29
2023-02-20T06:59:47.404Z,26.52
2023-02-20T07:00:47.368Z,26.76
2023-02-20T07:01:47.302Z,26.74
2023-02-20T07:02:47.234Z,26.73
2023-02-20T07:03:47.192Z,26.76
2023-02-20T07:04:47.187Z,26.76
2023-02-20T07:06:47.104Z,26.94
2023-02-20T07:09:46.994Z,27.08
2023-02-20T07:20:46.636Z,27.70
2023-02-20T07:22:46.535Z,27.86
2023-02-20T07:23:46.502Z,28.00
2023-02-20T07:24:46.498Z,28.04
2023-02-20T07:25:46.447Z,28.06
2023-02-20T07:26:46.410Z,28.04
2023-02-20T07:27:46.435Z,28.11
2023-02-20T08:14:44.474Z,29.75
2023-02-20T08:15:44.444Z,29.70
2023-02-20T08:18:44.347Z,29.68
2023-02-20T08:20:44.340Z,29.77
2023-02-20T08:26:44.070Z,29.87
2023-02-20T09:04:42.629Z,29.51
2023-02-20T09:05:42.574Z,29.55
2023-02-20T09:06:42.537Z,29.52
2023-02-20T09:07:42.505Z,29.50
2023-02-20T09:08:42.463Z,29.37
2023-02-20T09:09:42.428Z,29.33
2023-02-20T09:16:42.295Z,28.70
2023-02-20T09:18:42.061Z,28.30
2023-02-20T09:19:42.041Z,28.30
2023-02-20T09:20:41.986Z,28.34
2023-02-20T09:21:41.917Z,28.15
2023-02-20T09:22:41.869Z,28.28
2023-02-20T09:23:41.838Z,28.28
2023-02-20T09:24:41.775Z,28.31
2023-02-20T09:25:41.742Z,28.28
2023-02-20T09:26:41.738Z,28.24
2023-02-20T09:27:41.662Z,28.08
2023-02-20T09:28:41.614Z,26.98
2023-02-20T09:29:41.590Z,26.96
2023-02-20T09:30:41.563Z,26.12
2023-02-20T09:31:41.566Z,25.18
2023-02-20T09:32:41.490Z,24.24
2023-02-20T09:33:41.417Z,23.48
2023-02-20T09:34:41.387Z,22.88
2023-02-20T09:35:41.362Z,22.41
2023-02-20T09:36:41.313Z,22.65
2023-02-20T09:37:41.291Z,23.81
2023-02-20T09:38:41.236Z,24.00
2023-02-20T09:39:41.241Z,24.07
2023-02-20T09:40:41.171Z,24.13
2023-02-20T09:41:41.165Z,24.10
2023-02-20T09:42:43.357Z,23.87
2023-02-20T09:43:41.056Z,22.67
2023-02-20T09:44:41.020Z,22.07
2023-02-20T09:45:41.034Z,22.10
2023-02-20T09:46:40.976Z,23.37
2023-02-20T09:47:40.909Z,23.62
2023-02-20T09:48:40.858Z,23.78
2023-02-20T09:49:40.934Z,23.25
2023-02-20T09:50:40.799Z,23.45
2023-02-20T09:51:40.763Z,23.44
2023-02-20T09:52:40.714Z,23.64
2023-02-20T09:53:40.746Z,23.96
2023-02-20T09:54:40.636Z,24.11
2023-02-20T09:55:40.605Z,24.37
2023-02-20T09:56:40.597Z,24.60
2023-02-20T09:57:40.539Z,24.78
2023-02-20T09:58:40.523Z,25.06
2023-02-20T09:59:40.467Z,25.01
2023-02-20T10:00:40.430Z,25.04
2023-02-20T10:01:40.403Z,24.97
2023-02-20T10:02:40.658Z,25.04
2023-02-20T10:03:40.367Z,25.09
2023-02-20T10:04:45.175Z,25.20
2023-02-20T10:05:41.258Z,25.25
2023-02-20T10:06:40.202Z,25.30
2023-02-20T10:07:40.190Z,25.32
2023-02-20T10:08:40.126Z,25.44
2023-02-20T10:09:40.077Z,25.49
2023-02-20T10:10:40.134Z,25.47
2023-02-20T10:11:40.021Z,25.54
2023-02-20T10:12:39.962Z,25.62
2023-02-20T10:13:39.933Z,25.54
2023-02-20T10:20:39.660Z,25.46
2023-02-20T10:21:39.581Z,25.55
2023-02-20T10:22:39.535Z,25.54
2023-02-20T10:23:39.511Z,25.55
2023-02-20T10:24:39.460Z,25.53
2023-02-20T10:25:39.441Z,25.63
2023-02-20T10:26:39.386Z,25.54
2023-02-20T10:27:39.355Z,25.65
2023-02-20T10:32:39.168Z,25.52
2023-02-20T10:33:39.106Z,25.28
2023-02-20T10:34:39.080Z,25.42
2023-02-20T10:35:39.011Z,25.27
2023-02-20T10:36:38.983Z,25.28
2023-02-20T10:37:46.954Z,25.21
2023-02-20T10:38:39.895Z,24.98
2023-02-20T10:39:38.883Z,24.74
2023-02-20T10:40:38.849Z,24.70
2023-02-20T10:41:38.782Z,24.83
2023-02-20T10:42:38.744Z,24.75
2023-02-20T10:43:38.703Z,24.80
2023-02-20T10:44:50.158Z,25.10
2023-02-20T10:45:39.877Z,24.92
2023-02-20T10:46:48.547Z,25.13
2023-02-20T10:47:39.804Z,25.40
2023-02-20T10:48:38.760Z,26.55
2023-02-20T10:49:38.727Z,26.50
2023-02-20T10:50:38.686Z,26.72
2023-02-20T10:51:38.639Z,26.88
2023-02-20T10:52:38.594Z,26.97
2023-02-20T10:53:38.557Z,27.37
2023-02-20T10:54:38.508Z,27.67
2023-02-20T10:55:38.446Z,27.69
2023-02-20T10:56:38.394Z,27.72
2023-02-20T10:57:38.344Z,27.72
2023-02-20T10:58:38.322Z,27.90
2023-02-20T10:59:38.268Z,28.12
2023-02-20T11:00:38.323Z,28.14
2023-02-20T11:01:38.240Z,28.38
2023-02-20T11:02:38.147Z,28.54
2023-02-20T11:03:38.183Z,28.44
2023-02-20T11:04:38.082Z,28.50
2023-02-20T11:05:37.993Z,28.69
2023-02-20T11:06:37.957Z,28.76
2023-02-20T11:07:37.901Z,28.82
2023-02-20T11:08:37.868Z,28.79
2023-02-20T11:09:37.834Z,28.74
2023-02-20T11:10:37.766Z,28.84
2023-02-20T11:11:37.719Z,28.97
2023-02-20T11:12:37.668Z,29.08
2023-02-20T11:13:37.620Z,29.01
2023-02-20T11:14:40.876Z,28.99
2023-02-20T11:15:37.556Z,29.05
2023-02-20T11:16:37.472Z,29.11
2023-02-20T11:17:37.466Z,29.05
2023-02-20T11:18:37.377Z,29.02
2023-02-20T11:19:37.362Z,29.17
2023-02-20T11:20:37.286Z,29.13
2023-02-20T11:21:37.237Z,29.05
2023-02-20T11:22:37.185Z,29.31
2023-02-20T11:23:37.163Z,29.14
2023-02-20T11:24:37.129Z,29.29
2023-02-20T11:25:37.053Z,29.29
2023-02-20T11:26:37.001Z,29.23
2023-02-20T11:27:36.995Z,29.17
2023-02-20T11:28:36.925Z,29.29
2023-02-20T11:29:36.871Z,29.23
2023-02-20T11:30:36.884Z,29.32
2023-02-20T11:31:36.866Z,29.59
2023-02-20T11:32:36.781Z,29.43
2023-02-20T11:33:36.751Z,29.40
2023-02-20T11:34:36.654Z,29.43
2023-02-20T11:35:36.610Z,29.50
2023-02-20T11:36:36.583Z,29.37
2023-02-20T11:37:49.242Z,28.74
2023-02-20T11:38:37.507Z,29.05
2023-02-20T11:39:36.426Z,29.30
2023-02-20T11:40:36.452Z,28.83
2023-02-20T11:41:36.342Z,28.24
2023-02-20T11:42:36.289Z,28.26
2023-02-20T11:43:36.226Z,27.56
2023-02-20T11:44:36.205Z,28.23
2023-02-20T11:45:36.117Z,28.19
2023-02-20T11:46:36.122Z,28.14
2023-02-20T11:47:36.011Z,28.31
2023-02-20T11:48:35.970Z,27.82
2023-02-20T11:49:35.918Z,27.06
2023-02-20T11:50:35.873Z,27.18
2023-02-20T11:51:35.811Z,26.89
2023-02-20T11:52:35.762Z,26.45
2023-02-20T11:53:35.714Z,26.38
2023-02-20T11:54:35.697Z,26.05
2023-02-20T11:55:35.631Z,25.84
2023-02-20T11:56:35.578Z,25.80
2023-02-20T11:57:35.588Z,25.71
2023-02-20T11:58:35.460Z,25.48
2023-02-20T11:59:35.426Z,25.36
2023-02-20T12:00:35.355Z,25.08
2023-02-20T12:01:35.371Z,24.97
2023-02-20T12:02:35.301Z,24.96
2023-02-20T12:03:35.202Z,24.82
2023-02-20T12:04:35.162Z,24.96
2023-02-20T12:05:35.166Z,24.93
2023-02-20T12:06:35.062Z,24.89
2023-02-20T12:07:35.006Z,24.91
2023-02-20T12:08:34.957Z,24.67
2023-02-20T12:09:34.906Z,24.63
2023-02-20T12:10:34.862Z,24.58
2023-02-20T12:11:34.820Z,24.62
2023-02-20T12:12:34.780Z,24.62
2023-02-20T12:13:34.730Z,24.52
2023-02-20T12:14:34.691Z,24.26
2023-02-20T12:15:34.663Z,24.13
2023-02-20T12:16:34.800Z,24.14
2023-02-20T12:17:34.555Z,24.26
2023-02-20T12:18:34.507Z,24.17
2023-02-20T12:19:34.452Z,24.20
2023-02-20T12:20:34.448Z,24.22
2023-02-20T12:21:34.380Z,24.32
2023-02-20T12:22:34.334Z,24.35
2023-02-20T12:23:34.290Z,24.39
2023-02-20T12:24:34.246Z,24.19
2023-02-20T12:25:34.225Z,24.57
2023-02-20T12:26:34.162Z,24.62
2023-02-20T12:27:34.123Z,24.66
2023-02-20T12:28:34.124Z,24.76
2023-02-20T12:29:34.035Z,24.86
2023-02-20T12:30:34.029Z,24.91
2023-02-20T12:31:34.035Z,24.82
2023-02-20T12:32:33.935Z,25.01
2023-02-20T12:33:33.859Z,24.96
2023-02-20T12:34:33.806Z,25.00
2023-02-20T12:35:33.766Z,24.97
2023-02-20T12:36:33.717Z,24.98
2023-02-20T12:37:33.672Z,24.98
2023-02-20T12:38:33.629Z,25.03
2023-02-20T12:39:33.608Z,24.95
2023-02-20T12:40:33.548Z,25.04
2023-02-20T12:41:33.557Z,25.03
2023-02-20T12:42:33.466Z,25.01
2023-02-20T12:43:33.415Z,25.09
2023-02-20T12:44:33.374Z,25.11
2023-02-20T12:45:33.385Z,25.11
2023-02-20T12:46:33.337Z,25.14
2023-02-20T12:47:33.242Z,25.10
2023-02-20T12:48:33.208Z,25.14
2023-02-20T12:49:33.150Z,25.14
2023-02-20T12:50:33.106Z,25.22
2023-02-20T12:51:33.064Z,25.29
2023-02-20T12:52:33.015Z,25.56
2023-02-20T12:53:32.964Z,26.58
2023-02-20T12:54:32.934Z,27.05
2023-02-20T12:55:32.871Z,27.87
2023-02-20T12:56:32.845Z,27.76
2023-02-20T12:57:32.782Z,27.86
2023-02-20T12:58:32.743Z,27.76
2023-02-20T12:59:32.710Z,27.52
2023-02-20T13:00:32.667Z,27.53
2023-02-20T13:01:39.681Z,27.44
2023-02-20T13:02:41.721Z,27.25
2023-02-20T13:03:33.592Z,27.19
2023-02-20T13:04:32.473Z,27.21
2023-02-20T13:05:32.416Z,27.10
2023-02-20T13:06:32.381Z,27.03
2023-02-20T13:07:32.330Z,27.00
2023-02-20T13:08:32.292Z,26.87
2023-02-20T13:09:32.258Z,26.87
2023-02-20T13:10:32.238Z,26.86
2023-02-20T13:11:32.188Z,26.83
2023-02-20T13:12:32.130Z,26.76
2023-02-20T13:13:32.092Z,26.74
2023-02-20T13:14:32.048Z,26.73
2023-02-20T13:15:32.013Z,26.67
2023-02-20T13:16:32.038Z,26.64
2023-02-20T13:17:31.925Z,26.50
2023-02-20T13:18:31.886Z,26.53
2023-02-20T13:19:31.849Z,26.52
2023-02-20T13:20:31.804Z,26.47
2023-02-20T13:21:31.760Z,26.41
2023-02-20T13:22:31.724Z,26.38
2023-02-20T13:23:31.707Z,26.35
2023-02-20T13:24:31.636Z,26.35
2023-02-20T13:25:31.592Z,26.32
2023-02-20T13:26:31.555Z,26.32
2023-02-20T13:27:31.504Z,26.26
2023-02-20T13:28:31.460Z,26.26
2023-02-20T13:29:31.420Z,26.31
2023-02-20T13:30:31.387Z,26.16
2023-02-20T13:31:31.392Z,26.19
2023-02-20T13:32:31.297Z,26.20
2023-02-20T13:33:31.221Z,26.22
2023-02-20T13:34:31.175Z,26.10
2023-02-20T13:35:31.135Z,26.11
2023-02-20T13:36:31.099Z,26.08
2023-02-20T13:37:31.068Z,26.04
2023-02-20T13:38:30.998Z,26.03
2023-02-20T13:39:30.954Z,26.05
2023-02-20T13:40:30.897Z,25.99
2023-02-20T13:41:30.873Z,25.89
2023-02-20T13:42:30.833Z,25.88
2023-02-20T13:43:30.802Z,25.86
2023-02-20T13:44:30.769Z,25.85
2023-02-20T13:45:30.738Z,25.86
2023-02-20T13:46:30.673Z,25.77
2023-02-20T13:47:30.614Z,25.77
2023-02-20T13:48:30.580Z,25.76
2023-02-20T13:49:30.550Z,25.67
2023-02-20T13:50:30.483Z,25.69
2023-02-20T13:51:30.436Z,25.66
2023-02-20T13:52:30.407Z,25.66
2023-02-20T13:53:30.418Z,25.57
2023-02-20T13:54:30.336Z,25.57
2023-02-20T13:55:30.298Z,25.56
2023-02-20T13:56:30.273Z,25.53
2023-02-20T13:57:30.242Z,25.47
2023-02-20T13:58:31.028Z,25.44
2023-02-20T13:59:30.173Z,25.37
2023-02-20T14:00:30.162Z,25.33
2023-02-20T14:01:30.173Z,25.27
2023-02-20T14:02:30.131Z,25.24
2023-02-20T14:03:30.072Z,25.24
2023-02-20T14:04:30.063Z,25.14
2023-02-20T14:05:29.975Z,25.17
2023-02-20T14:06:29.944Z,25.14
2023-02-20T14:07:29.917Z,25.12
2023-02-20T14:08:29.879Z,25.12
2023-02-20T14:09:29.872Z,25.08
2023-02-20T14:10:29.839Z,25.08
2023-02-20T14:11:29.782Z,25.05
2023-02-20T14:12:29.737Z,25.04
2023-02-20T14:13:39.700Z,25.01
2023-02-20T14:14:30.660Z,24.95
2023-02-20T14:15:29.622Z,24.95
2023-02-20T14:16:29.668Z,24.96
2023-02-20T14:17:29.556Z,24.98
2023-02-20T14:18:29.524Z,24.95
2023-02-20T14:19:29.476Z,25.05
2023-02-20T14:20:29.444Z,24.95
2023-02-20T14:21:29.406Z,24.93
2023-02-20T14:22:29.379Z,24.93
2023-02-20T14:23:29.335Z,24.87
2023-02-20T14:24:29.309Z,24.95
2023-02-20T14:25:29.326Z,24.87
2023-02-20T14:26:29.239Z,24.86
2023-02-20T14:27:29.194Z,24.83
2023-02-20T14:28:29.195Z,24.81
2023-02-20T14:29:29.100Z,24.80
2023-02-20T14:30:29.074Z,24.87
2023-02-20T14:31:29.043Z,24.80
2023-02-20T14:32:29.117Z,24.84
2023-02-20T14:33:28.980Z,24.77
2023-02-20T14:34:28.916Z,24.83
2023-02-20T14:35:28.876Z,24.84
2023-02-20T14:36:28.845Z,24.74
2023-02-20T14:37:28.810Z,24.72
2023-02-20T14:38:28.958Z,24.76
2023-02-20T14:39:28.720Z,24.74
2023-02-20T14:40:28.685Z,24.74
2023-02-20T14:41:28.637Z,24.62
2023-02-20T14:42:28.604Z,24.62
2023-02-20T14:43:28.575Z,24.64
2023-02-20T14:44:28.530Z,24.63
2023-02-20T14:45:28.556Z,24.64
2023-02-20T14:46:28.448Z,24.58
2023-02-20T14:47:28.405Z,24.50
2023-02-20T14:48:28.377Z,24.50
2023-02-20T14:49:28.324Z,24.44
2023-02-20T14:50:28.285Z,24.51
2023-02-20T14:51:28.251Z,24.51
2023-02-20T14:52:28.216Z,24.49
2023-02-20T14:53:28.163Z,24.60
2023-02-20T14:54:28.116Z,24.60
2023-02-20T14:55:28.087Z,24.62
2023-02-20T14:56:28.077Z,24.60
2023-02-20T14:57:27.997Z,24.68
2023-02-20T14:58:27.967Z,24.66
2023-02-20T14:59:27.918Z,24.67
2023-02-20T15:00:27.882Z,24.67
2023-02-20T15:01:27.883Z,24.69
2023-02-20T15:02:34.213Z,24.70
2023-02-20T15:03:30.993Z,24.72
2023-02-20T15:04:27.772Z,24.73
2023-02-20T15:05:27.688Z,24.70
2023-02-20T15:06:27.655Z,24.75
2023-02-20T15:07:27.622Z,24.76
2023-02-20T15:08:27.565Z,24.77
2023-02-20T15:09:27.523Z,24.68
2023-02-20T15:10:27.495Z,24.76
2023-02-20T15:11:27.435Z,24.74
2023-02-20T15:12:27.398Z,24.77
2023-02-20T15:13:27.427Z,24.74
2023-02-20T15:14:27.337Z,24.82
2023-02-20T15:15:27.274Z,24.76
2023-02-20T15:16:27.268Z,24.77
2023-02-20T15:17:27.196Z,24.72
2023-02-20T15:18:27.164Z,24.75
2023-02-20T15:19:27.134Z,24.74
2023-02-20T15:20:27.097Z,24.78